Time;durP1;ratioP1;P1;durP2;ratioP2;P2;SDS_P1;SDS_P2;PMS_P1;PMS_P2;Temp;Humidity;BMP_temperature;BMP_pressure;BME280_temperature;BME280_humidity;BME280_pressure;Samples;Min_cycle;Max_cycle;Signal;HPM_P1;HPM_P2
2023/05/06 00:01:24;;;;;;;27.25;16.05;;;;;;;12.48;100.00;101175.66;5033737;28;20037;-67
2023/05/06 00:03:49;;;;;;;28.70;16.02;;;;;;;12.47;100.00;101167.03;5039789;28;20123;-66
2023/05/06 00:06:15;;;;;;;22.17;14.88;;;;;;;12.44;100.00;101172.25;5041095;28;20025;-66
2023/05/06 00:08:40;;;;;;;25.33;14.38;;;;;;;12.37;100.00;101175.78;5029020;28;20041;-67
2023/05/06 00:11:06;;;;;;;23.40;14.57;;;;;;;12.30;100.00;101167.19;5039615;28;20690;-67
2023/05/06 00:13:31;;;;;;;16.80;11.43;;;;;;;12.28;100.00;101162.91;5038247;28;20091;-67
2023/05/06 00:15:56;;;;;;;26.05;14.85;;;;;;;12.26;100.00;101168.09;5024198;28;20033;-67
2023/05/06 00:18:22;;;;;;;20.20;12.82;;;;;;;12.25;100.00;101163.78;5016000;28;20029;-67
2023/05/06 00:20:48;;;;;;;20.33;13.02;;;;;;;12.23;100.00;101164.66;5027775;28;20025;-67
2023/05/06 00:23:13;;;;;;;20.67;12.73;;;;;;;12.21;100.00;101159.50;5034459;28;20033;-67
2023/05/06 00:25:39;;;;;;;24.02;15.40;;;;;;;12.19;100.00;101158.66;5035084;28;20869;-67
2023/05/06 00:28:04;;;;;;;25.17;14.57;;;;;;;12.19;100.00;101173.34;5033894;28;20649;-67
2023/05/06 00:30:30;;;;;;;19.42;13.80;;;;;;;12.17;100.00;101169.88;5035476;28;20795;-67
2023/05/06 00:32:55;;;;;;;18.65;13.13;;;;;;;12.13;100.00;101169.09;5038753;28;20071;-67
2023/05/06 00:35:20;;;;;;;25.27;15.55;;;;;;;12.12;100.00;101156.13;5039369;28;20394;-67
2023/05/06 00:37:54;;;;;;;25.88;15.73;;;;;;;12.14;100.00;101162.19;5036390;28;20037;-67
2023/05/06 00:40:20;;;;;;;24.57;14.30;;;;;;;12.13;100.00;101147.50;5035972;28;20406;-67
2023/05/06 00:42:45;;;;;;;23.40;15.63;;;;;;;12.11;100.00;101152.66;5029850;28;20271;-67
2023/05/06 00:45:10;;;;;;;20.45;14.57;;;;;;;12.11;100.00;101151.84;5035087;28;20028;-67
2023/05/06 00:47:36;;;;;;;25.50;15.55;;;;;;;12.11;100.00;101149.25;5032117;28;20532;-67
2023/05/06 00:50:02;;;;;;;29.02;16.42;;;;;;;12.10;100.00;101150.97;5036583;28;20036;-67
2023/05/06 00:52:27;;;;;;;29.77;16.13;;;;;;;12.11;100.00;101147.47;5035457;28;20045;-67
2023/05/06 00:54:53;;;;;;;24.40;15.27;;;;;;;12.09;100.00;101158.75;5027574;28;20037;-67
2023/05/06 00:57:18;;;;;;;25.65;16.63;;;;;;;12.04;100.00;101158.78;5030592;28;20041;-67
2023/05/06 00:59:43;;;;;;;29.60;16.52;;;;;;;12.00;100.00;101159.69;5045618;28;20081;-67
2023/05/06 01:02:09;;;;;;;20.00;13.35;;;;;;;11.93;100.00;101157.16;5038522;28;20037;-67
2023/05/06 01:04:34;;;;;;;19.98;13.93;;;;;;;11.87;100.00;101145.13;5038765;28;20767;-67
2023/05/06 01:07:09;;;;;;;23.55;14.10;;;;;;;11.84;100.00;101142.56;5036287;28;20557;-67
2023/05/06 01:09:51;;;;;;;16.13;11.05;;;;;;;11.79;100.00;101142.56;5035593;28;20041;-67
2023/05/06 01:12:31;;;;;;;27.85;17.73;;;;;;;11.79;100.00;101144.28;5036552;28;20036;-66
2023/05/06 01:15:19;;;;;;;27.48;18.25;;;;;;;11.79;100.00;101144.28;5036984;28;20084;-67
2023/05/06 01:18:00;;;;;;;30.95;18.40;;;;;;;11.72;100.00;101146.06;5031484;27;20421;-66
2023/05/06 01:20:26;;;;;;;22.95;15.27;;;;;;;11.67;100.00;101147.81;5050760;28;20037;-66
2023/05/06 01:22:52;;;;;;;21.23;15.15;;;;;;;11.63;100.00;101153.06;5010582;28;20033;-67
2023/05/06 01:25:21;;;;;;;23.02;14.52;;;;;;;11.56;100.00;101147.03;5006042;28;20034;-67
2023/05/06 01:27:47;;;;;;;25.88;16.15;;;;;;;11.51;100.00;101150.53;4996959;28;20153;-67
2023/05/06 01:30:15;;;;;;;24.83;15.43;;;;;;;11.48;100.00;101155.72;4997791;28;20033;-66
2023/05/06 01:32:48;;;;;;;26.88;16.60;;;;;;;11.44;100.00;101157.47;5005682;28;20518;-67
2023/05/06 01:35:38;;;;;;;23.27;14.90;;;;;;;11.39;100.00;101151.44;4999390;28;20034;-67
2023/05/06 01:38:32;;;;;;;22.52;14.20;;;;;;;11.35;100.00;101154.91;4994496;28;20034;-67
2023/05/06 01:41:00;;;;;;;22.92;14.52;;;;;;;11.32;100.00;101154.91;4996930;28;20138;-67
2023/05/06 01:43:29;;;;;;;23.23;14.75;;;;;;;11.28;100.00;101156.66;4997034;28;20134;-67
2023/05/06 01:45:55;;;;;;;25.05;15.70;;;;;;;11.26;100.00;101152.34;5000573;28;20030;-67
2023/05/06 01:48:25;;;;;;;26.83;16.38;;;;;;;11.24;100.00;101156.69;4985613;28;20120;-66
2023/05/06 01:50:51;;;;;;;24.20;16.05;;;;;;;11.20;100.00;101161.00;4999614;28;20388;-67
2023/05/06 01:53:16;;;;;;;21.02;14.07;;;;;;;11.15;100.00;101160.19;4999077;28;20084;-67
2023/05/06 01:55:41;;;;;;;19.45;12.63;;;;;;;11.11;100.00;101163.63;5002677;28;21432;-67
2023/05/06 01:58:07;;;;;;;19.48;11.75;;;;;;;11.09;100.00;101160.22;4990808;28;20404;-67
2023/05/06 02:00:32;;;;;;;21.55;12.68;;;;;;;11.06;100.00;101157.63;5006471;28;20041;-67
2023/05/06 02:02:58;;;;;;;24.13;14.48;;;;;;;11.03;100.00;101167.13;5000947;28;20037;-67
2023/05/06 02:05:23;;;;;;;21.13;13.98;;;;;;;11.01;100.00;101161.94;4999526;28;20030;-67
2023/05/06 02:07:49;;;;;;;17.80;11.35;;;;;;;10.96;100.00;101155.94;4998960;28;20555;-68
2023/05/06 02:10:14;;;;;;;25.42;17.00;;;;;;;10.98;100.00;101158.53;4994179;28;20121;-67
2023/05/06 02:12:40;;;;;;;24.05;14.90;;;;;;;11.00;100.00;101159.38;4998166;28;20442;-67
2023/05/06 02:15:06;;;;;;;27.88;14.93;;;;;;;10.96;100.00;101166.28;4998781;28;20038;-67
2023/05/06 02:17:34;;;;;;;24.23;14.55;;;;;;;10.95;100.00;101167.13;4996223;28;20041;-67
2023/05/06 02:19:59;;;;;;;26.58;15.93;;;;;;;10.94;100.00;101165.44;4997774;28;20050;-67
2023/05/06 02:22:24;;;;;;;29.40;17.15;;;;;;;10.93;100.00;101168.88;4997018;28;20069;-67
2023/05/06 02:24:50;;;;;;;32.05;15.73;;;;;;;10.92;100.00;101164.56;4998656;28;20085;-67
2023/05/06 02:27:15;;;;;;;23.65;13.82;;;;;;;10.89;100.00;101167.16;4992636;28;20032;-66
2023/05/06 02:29:40;;;;;;;24.83;13.35;;;;;;;10.88;100.00;101170.63;4980283;28;20197;-67
2023/05/06 02:32:06;;;;;;;27.52;15.38;;;;;;;10.87;100.00;101165.44;4993932;28;20136;-67
2023/05/06 02:34:32;;;;;;;27.60;16.95;;;;;;;10.95;100.00;101155.97;4980944;28;20110;-67
2023/05/06 02:36:57;;;;;;;32.03;17.73;;;;;;;10.97;100.00;101161.97;4985666;28;20034;-67
2023/05/06 02:39:23;;;;;;;31.35;18.52;;;;;;;10.96;100.00;101155.94;4984800;28;20542;-67
2023/05/06 02:41:48;;;;;;;33.15;17.33;;;;;;;10.91;100.00;101156.81;4985457;28;20780;-67
2023/05/06 02:44:13;;;;;;;36.85;17.55;;;;;;;10.84;100.00;101150.81;4988237;28;20042;-67
2023/05/06 02:46:39;;;;;;;29.15;15.88;;;;;;;10.80;100.00;101156.88;4985975;28;20042;-68
2023/05/06 02:49:04;;;;;;;29.92;15.82;;;;;;;10.77;100.00;101160.31;4988408;28;20065;-68
2023/05/06 02:51:30;;;;;;;24.60;14.13;;;;;;;10.73;100.00;101160.34;4983315;28;20038;-68
2023/05/06 02:53:55;;;;;;;26.27;15.90;;;;;;;10.70;100.00;101158.63;4991252;28;20743;-68
2023/05/06 02:56:21;;;;;;;27.92;15.90;;;;;;;10.71;100.00;101151.72;4984084;28;20547;-68
2023/05/06 02:58:46;;;;;;;27.30;16.55;;;;;;;10.67;100.00;101157.75;4982685;28;20450;-68
2023/05/06 03:01:11;;;;;;;26.65;14.10;;;;;;;10.64;100.00;101155.19;4983701;28;20038;-68
2023/05/06 03:03:37;;;;;;;23.38;15.07;;;;;;;10.62;100.00;101159.50;4982972;28;20102;-68
2023/05/06 03:06:02;;;;;;;29.67;17.65;;;;;;;10.63;100.00;101166.38;4990598;28;20031;-68
2023/05/06 03:08:28;;;;;;;28.73;17.27;;;;;;;10.68;100.00;101159.50;4987124;28;20079;-68
2023/05/06 03:10:53;;;;;;;27.50;16.70;;;;;;;10.66;100.00;101163.78;4981579;28;20045;-68
2023/05/06 03:13:18;;;;;;;36.58;17.30;;;;;;;10.62;100.00;101156.91;4985615;28;20503;-68
2023/05/06 03:15:44;;;;;;;34.65;16.95;;;;;;;10.59;100.00;101160.38;4987354;28;20157;-68
2023/05/06 03:18:10;;;;;;;38.80;16.45;;;;;;;10.53;100.00;101159.53;4983596;28;20511;-68
2023/05/06 03:20:35;;;;;;;36.22;14.73;;;;;;;10.46;100.00;101160.38;4993077;28;20045;-68
2023/05/06 03:23:00;;;;;;;34.55;14.55;;;;;;;10.37;100.00;101156.09;4988711;28;20096;-68
2023/05/06 03:25:26;;;;;;;26.08;13.38;;;;;;;10.33;100.00;101156.94;4978416;28;20042;-68
2023/05/06 03:27:51;;;;;;;26.63;13.43;;;;;;;10.28;100.00;101152.66;4989068;28;20034;-68
2023/05/06 03:30:17;;;;;;;22.83;12.18;;;;;;;10.23;100.00;101160.44;4980425;28;20044;-68
2023/05/06 03:32:42;;;;;;;26.67;11.15;;;;;;;10.18;100.00;101147.50;4977881;28;20035;-68
2023/05/06 03:35:10;;;;;;;23.13;11.93;;;;;;;10.13;100.00;101156.09;4988029;28;20038;-68
2023/05/06 03:37:35;;;;;;;20.17;11.63;;;;;;;10.12;100.00;101151.78;4983966;28;20044;-68
2023/05/06 03:40:03;;;;;;;31.73;12.07;;;;;;;10.07;100.00;101156.97;4980719;28;20419;-68
2023/05/06 03:42:28;;;;;;;25.02;11.68;;;;;;;10.04;100.00;101156.09;4982081;28;20052;-68
2023/05/06 03:44:54;;;;;;;41.90;14.45;;;;;;;10.00;100.00;101154.41;4982271;28;20030;-68
2023/05/06 03:47:19;;;;;;;32.50;14.43;;;;;;;9.97;100.00;101157.81;4983578;28;20137;-68
2023/05/06 03:49:44;;;;;;;32.22;13.07;;;;;;;9.95;100.00;101162.13;5011760;28;20530;-69
2023/05/06 03:52:10;;;;;;;28.75;13.18;;;;;;;9.94;100.00;101157.00;4980192;28;20593;-68
2023/05/06 03:54:35;;;;;;;21.45;11.45;;;;;;;9.93;100.00;101160.41;4987968;28;20049;-68
2023/05/06 03:57:01;;;;;;;41.92;14.32;;;;;;;9.91;100.00;101160.41;4977469;28;20027;-68
2023/05/06 03:59:26;;;;;;;28.13;12.77;;;;;;;9.90;100.00;101157.84;4982253;28;20046;-69
2023/05/06 04:01:52;;;;;;;24.95;12.43;;;;;;;9.89;100.00;101161.25;4985481;28;20034;-68
2023/05/06 04:04:17;;;;;;;35.10;15.00;;;;;;;9.91;100.00;101159.56;4984260;28;20044;-68
2023/05/06 04:06:43;;;;;;;30.85;15.25;;;;;;;9.90;100.00;101161.28;4985312;28;20064;-68
2023/05/06 04:09:08;;;;;;;27.13;14.90;;;;;;;9.89;100.00;101166.44;4983099;28;20037;-68
2023/05/06 04:11:35;;;;;;;27.58;13.38;;;;;;;9.89;100.00;101158.69;4983619;28;20455;-68
2023/05/06 04:14:00;;;;;;;25.88;14.13;;;;;;;9.91;100.00;101162.16;4986559;28;20073;-68
2023/05/06 04:16:25;;;;;;;22.33;13.63;;;;;;;9.92;100.00;101153.53;4989824;28;20487;-68
2023/05/06 04:18:51;;;;;;;21.83;13.73;;;;;;;9.93;100.00;101160.41;4981030;28;20046;-68
2023/05/06 04:21:17;;;;;;;21.73;12.77;;;;;;;9.92;100.00;101159.56;4989325;28;20053;-67
2023/05/06 04:23:43;;;;;;;20.05;12.25;;;;;;;9.93;100.00;101163.00;4984240;28;20101;-68
2023/05/06 04:26:09;;;;;;;23.38;13.77;;;;;;;9.94;100.00;101165.56;4983498;28;20593;-68
2023/05/06 04:28:34;;;;;;;21.05;13.13;;;;;;;9.96;100.00;101173.34;4975833;28;20775;-68
2023/05/06 04:31:01;;;;;;;17.95;12.07;;;;;;;10.00;100.00;101175.06;4986855;28;20136;-68
2023/05/06 04:33:27;;;;;;;22.05;13.18;;;;;;;10.02;100.00;101174.19;4982756;28;20030;-68
2023/05/06 04:35:53;;;;;;;26.00;13.43;;;;;;;10.04;100.00;101175.06;4984208;28;20038;-68
2023/05/06 04:38:20;;;;;;;20.63;13.25;;;;;;;10.04;100.00;101174.19;4977849;28;20104;-68
2023/05/06 04:40:46;;;;;;;22.48;13.85;;;;;;;10.07;100.00;101175.06;4980820;28;20045;-69
2023/05/06 04:43:11;;;;;;;24.15;13.10;;;;;;;10.11;100.00;101184.53;4987846;28;20034;-68
2023/05/06 04:45:38;;;;;;;19.17;12.02;;;;;;;10.14;100.00;101194.00;5016601;28;20399;-68
2023/05/06 04:48:05;;;;;;;22.25;13.35;;;;;;;10.17;100.00;101191.44;4987196;28;20065;-68
2023/05/06 04:50:31;;;;;;;21.38;13.85;;;;;;;10.21;100.00;101195.72;4993967;28;20037;-68
2023/05/06 04:52:56;;;;;;;20.30;12.98;;;;;;;10.26;100.00;101198.31;4981993;28;20529;-68
2023/05/06 04:55:22;;;;;;;21.73;14.40;;;;;;;10.30;100.00;101200.03;4985205;28;20774;-67
2023/05/06 04:57:47;;;;;;;22.73;13.73;;;;;;;10.28;100.00;101196.56;4976892;28;20105;-68
2023/05/06 05:00:13;;;;;;;18.30;12.75;;;;;;;10.23;100.00;101204.34;4982090;28;20061;-69
2023/05/06 05:02:38;;;;;;;17.23;12.32;;;;;;;10.24;100.00;101206.91;4978491;28;20488;-69
2023/05/06 05:05:04;;;;;;;17.25;12.43;;;;;;;10.24;100.00;101209.50;4980114;28;20050;-69
2023/05/06 05:07:30;;;;;;;20.58;13.07;;;;;;;10.27;100.00;101200.03;4979535;28;20176;-68
2023/05/06 05:09:55;;;;;;;22.13;13.50;;;;;;;10.35;100.00;101206.06;4983089;28;20140;-69
2023/05/06 05:12:20;;;;;;;22.13;13.40;;;;;;;10.39;100.00;101200.88;4980775;28;20026;-68
2023/05/06 05:14:46;;;;;;;20.40;13.43;;;;;;;10.48;100.00;101200.88;5017233;28;20499;-68
2023/05/06 05:17:11;;;;;;;26.25;14.90;;;;;;;10.56;100.00;101206.91;4983395;28;20038;-69
2023/05/06 05:19:36;;;;;;;22.23;13.82;;;;;;;10.62;100.00;101209.47;4982281;28;20042;-68
2023/05/06 05:22:02;;;;;;;23.88;13.98;;;;;;;10.71;100.00;101214.63;4989448;28;20046;-68
2023/05/06 05:24:27;;;;;;;25.13;15.30;;;;;;;10.80;100.00;101213.75;4980450;28;20109;-68
2023/05/06 05:26:53;;;;;;;24.92;14.45;;;;;;;10.86;100.00;101215.47;4978666;28;20034;-68
2023/05/06 05:29:18;;;;;;;22.55;14.27;;;;;;;10.94;100.00;101221.47;4980365;28;20043;-68
2023/05/06 05:31:43;;;;;;;24.42;14.18;;;;;;;11.01;100.00;101218.03;5010702;28;20035;-68
2023/05/06 05:34:09;;;;;;;23.40;14.45;;;;;;;11.06;100.00;101214.53;4979823;28;20077;-68
2023/05/06 05:36:34;;;;;;;24.10;14.45;;;;;;;11.13;100.00;101211.06;4982672;28;20049;-68
2023/05/06 05:38:59;;;;;;;21.58;13.50;;;;;;;11.17;100.00;101215.38;4983411;28;20043;-68
2023/05/06 05:41:25;;;;;;;22.15;14.00;;;;;;;11.20;100.00;101215.34;4984509;28;21080;-68
2023/05/06 05:43:51;;;;;;;21.55;13.60;;;;;;;11.23;100.00;101217.06;4979277;28;20039;-68
2023/05/06 05:46:16;;;;;;;23.17;12.93;;;;;;;11.17;100.00;101217.09;4981227;28;20050;-68
2023/05/06 05:48:42;;;;;;;18.58;12.98;;;;;;;11.25;100.00;101216.19;4979006;28;20109;-68
2023/05/06 05:51:07;;;;;;;19.63;13.60;;;;;;;11.31;100.00;101223.06;4980048;28;20084;-69
2023/05/06 05:53:32;;;;;;;20.98;13.75;;;;;;;11.39;100.00;101225.63;4981290;28;20072;-68
2023/05/06 05:55:58;;;;;;;22.25;14.05;;;;;;;11.50;100.00;101229.06;4981379;28;20328;-69
2023/05/06 05:58:23;;;;;;;19.38;13.88;;;;;;;11.55;100.00;101227.31;4977371;28;20134;-68
2023/05/06 06:00:49;;;;;;;23.65;14.25;;;;;;;11.64;100.00;101232.44;4977810;28;20042;-68
2023/05/06 06:03:17;;;;;;;20.13;14.45;;;;;;;11.73;100.00;101227.19;4979599;28;20050;-67
2023/05/06 06:05:42;;;;;;;18.88;13.82;;;;;;;11.79;100.00;101227.16;4981316;28;20025;-68
2023/05/06 06:08:08;;;;;;;22.13;14.38;;;;;;;11.85;100.00;101225.41;4980710;28;20038;-67
2023/05/06 06:10:33;;;;;;;24.45;15.32;;;;;;;11.95;100.00;101230.53;4976222;28;20040;-67
2023/05/06 06:12:58;;;;;;;21.83;14.32;;;;;;;12.01;100.00;101226.19;4974419;28;20042;-68
2023/05/06 06:15:24;;;;;;;22.83;15.10;;;;;;;12.14;100.00;101229.53;4975740;28;20093;-68
2023/05/06 06:17:52;;;;;;;24.50;15.18;;;;;;;12.21;100.00;101228.59;4979562;28;20042;-68
2023/05/06 06:20:18;;;;;;;22.70;14.93;;;;;;;12.31;100.00;101227.69;4983140;28;20065;-67
2023/05/06 06:22:43;;;;;;;19.35;14.35;;;;;;;12.41;100.00;101227.56;4986641;28;20069;-68
2023/05/06 06:25:09;;;;;;;20.40;14.10;;;;;;;12.47;100.00;101226.66;4982012;28;20122;-67
2023/05/06 06:27:35;;;;;;;18.73;13.85;;;;;;;12.51;100.00;101230.09;4981861;28;20047;-67
2023/05/06 06:30:01;;;;;;;20.48;13.68;;;;;;;12.60;100.00;101223.09;4987404;28;20030;-68
2023/05/06 06:32:26;;;;;;;17.77;12.88;;;;;;;12.68;100.00;101221.28;4972841;28;20042;-67
2023/05/06 06:34:52;;;;;;;18.13;12.85;;;;;;;12.81;100.00;101225.47;4978942;28;20104;-67
2023/05/06 06:37:17;;;;;;;19.95;14.02;;;;;;;12.94;100.00;101234.84;4985958;28;20443;-68
2023/05/06 06:39:42;;;;;;;19.63;13.95;;;;;;;13.02;100.00;101227.03;4981302;28;20036;-67
2023/05/06 06:42:08;;;;;;;21.00;14.30;;;;;;;13.19;100.00;101232.88;5014364;28;20108;-68
2023/05/06 06:44:34;;;;;;;16.38;12.25;;;;;;;13.18;100.00;101225.97;4982723;28;20038;-68
2023/05/06 06:47:00;;;;;;;17.35;12.40;;;;;;;13.26;100.00;101223.28;4987295;28;20069;-67
2023/05/06 06:49:26;;;;;;;18.02;12.73;;;;;;;13.27;100.00;101227.59;4983414;28;20462;-67
2023/05/06 06:51:52;;;;;;;17.15;12.45;;;;;;;13.36;100.00;101228.34;4985613;28;20038;-68
2023/05/06 06:54:17;;;;;;;16.70;12.38;;;;;;;13.38;100.00;101226.59;4980063;28;20026;-68
2023/05/06 06:56:43;;;;;;;20.00;11.70;;;;;;;13.49;100.00;101224.72;4979389;28;20056;-68
2023/05/06 06:59:08;;;;;;;14.52;10.90;;;;;;;13.51;100.00;101230.75;4986212;28;20032;-68
2023/05/06 07:01:34;;;;;;;17.02;11.05;;;;;;;13.55;100.00;101229.84;4975645;28;20038;-67
2023/05/06 07:03:59;;;;;;;15.90;11.40;;;;;;;13.69;100.00;101227.03;4986343;28;20208;-68
2023/05/06 07:06:24;;;;;;;16.13;11.15;;;;;;;13.75;100.00;101232.16;4985360;28;20031;-68
2023/05/06 07:08:50;;;;;;;17.83;11.57;;;;;;;13.81;100.00;101232.06;4983718;28;20060;-68
2023/05/06 07:11:15;;;;;;;17.38;10.48;;;;;;;13.95;100.00;101231.88;4982537;28;21032;-69
2023/05/06 07:13:41;;;;;;;13.27;10.45;;;;;;;14.00;100.00;101230.94;4978596;28;20164;-67
2023/05/06 07:16:06;;;;;;;13.00;10.13;;;;;;;14.04;100.00;101229.13;4982325;28;20077;-69
2023/05/06 07:18:31;;;;;;;14.30;10.88;;;;;;;14.12;100.00;101237.69;4982128;28;20044;-69
2023/05/06 07:20:57;;;;;;;12.75;9.88;;;;;;;14.26;100.00;101227.06;4987001;28;20069;-69
2023/05/06 07:23:22;;;;;;;14.70;10.07;;;;;;;14.32;99.02;101232.16;4981739;28;20038;-69
2023/05/06 07:25:48;;;;;;;12.23;8.63;;;;;;;14.45;98.82;101231.97;4980268;28;20050;-69
2023/05/06 07:28:14;;;;;;;12.18;8.93;;;;;;;14.46;97.28;101238.88;4981096;28;20046;-68
2023/05/06 07:30:40;;;;;;;11.23;9.07;;;;;;;14.53;96.79;101231.84;4983804;28;20668;-67
2023/05/06 07:33:06;;;;;;;12.07;9.18;;;;;;;14.59;96.39;101234.34;4984685;28;20037;-68
2023/05/06 07:35:31;;;;;;;10.80;8.68;;;;;;;14.66;95.65;101235.97;4982987;28;20057;-69
2023/05/06 07:37:56;;;;;;;12.60;8.95;;;;;;;14.78;95.77;101234.88;4980801;28;20042;-68
2023/05/06 07:40:22;;;;;;;12.38;8.63;;;;;;;14.84;94.71;101235.59;4981924;28;20580;-67
2023/05/06 07:42:47;;;;;;;10.95;8.05;;;;;;;14.91;93.52;101231.16;4980747;28;20116;-68
2023/05/06 07:45:14;;;;;;;9.73;7.53;;;;;;;15.03;93.27;101237.00;4990664;28;20034;-68
2023/05/06 07:47:39;;;;;;;10.88;7.75;;;;;;;15.10;92.75;101240.34;4987922;28;20049;-69
2023/05/06 07:50:05;;;;;;;10.88;6.68;;;;;;;15.17;92.19;101239.31;4985786;28;20046;-70
2023/05/06 07:52:31;;;;;;;7.15;6.45;;;;;;;15.26;90.32;101238.28;4983038;28;20045;-68
2023/05/06 07:54:56;;;;;;;8.88;6.22;;;;;;;15.29;88.49;101243.41;4991463;28;20034;-69
2023/05/06 07:57:22;;;;;;;9.82;5.35;;;;;;;15.32;87.50;101238.16;4981494;28;20514;-68
2023/05/06 07:59:49;;;;;;;6.25;5.00;;;;;;;15.43;87.10;101239.66;4982971;28;20034;-68
2023/05/06 08:02:14;;;;;;;6.18;5.20;;;;;;;15.43;85.31;101244.88;4984700;28;20101;-68
2023/05/06 08:04:40;;;;;;;7.78;5.50;;;;;;;15.46;86.37;101250.03;4983939;28;20042;-68
2023/05/06 08:07:05;;;;;;;6.93;4.95;;;;;;;15.55;86.09;101246.38;4983356;28;20049;-68
2023/05/06 08:09:31;;;;;;;8.70;5.07;;;;;;;15.83;85.80;101254.47;4990882;28;20499;-67
2023/05/06 08:11:57;;;;;;;7.00;4.88;;;;;;;15.95;83.63;101244.63;4979745;28;20077;-69
2023/05/06 08:14:24;;;;;;;6.22;4.75;;;;;;;16.03;84.34;101239.22;4986913;28;20033;-68
2023/05/06 08:16:50;;;;;;;5.53;4.03;;;;;;;16.18;83.09;101242.34;4984613;28;20041;-68
2023/05/06 08:19:16;;;;;;;5.53;4.85;;;;;;;16.26;84.31;101244.78;4978790;28;20043;-68
2023/05/06 08:21:42;;;;;;;6.03;5.03;;;;;;;16.29;82.37;101240.31;4992566;28;20034;-68
2023/05/06 08:24:07;;;;;;;6.25;4.07;;;;;;;16.34;81.14;101240.22;4982315;28;20049;-67
2023/05/06 08:26:33;;;;;;;6.15;4.00;;;;;;;16.50;81.16;101238.97;4974296;28;20101;-69
2023/05/06 08:28:58;;;;;;;4.95;4.13;;;;;;;16.47;78.76;101223.38;4982631;28;20041;-68
2023/05/06 08:31:24;;;;;;;5.85;4.32;;;;;;;16.61;80.25;101239.53;4986434;28;20026;-68
2023/05/06 08:33:50;;;;;;;5.03;4.22;;;;;;;16.63;79.41;101235.13;4981745;28;20034;-68
2023/05/06 08:36:15;;;;;;;5.93;3.47;;;;;;;16.64;77.49;101218.59;4980343;28;20030;-68
2023/05/06 08:38:47;;;;;;;7.15;3.58;;;;;;;16.72;77.72;101229.69;4982958;28;20093;-68
2023/05/06 08:41:18;;;;;;;6.63;3.63;;;;;;;16.85;76.82;101215.44;4977731;28;20034;-68
2023/05/06 08:43:45;;;;;;;4.40;3.10;;;;;;;16.95;77.50;101226.47;4980125;28;20065;-68
2023/05/06 08:46:11;;;;;;;4.60;2.90;;;;;;;17.03;78.08;101232.38;4986779;28;20030;-68
2023/05/06 08:48:37;;;;;;;4.30;3.90;;;;;;;17.12;76.14;101216.44;4980060;28;20722;-68
2023/05/06 08:51:03;;;;;;;3.45;2.80;;;;;;;17.23;77.59;101230.06;4984583;28;20046;-68
2023/05/06 08:53:30;;;;;;;3.65;2.78;;;;;;;17.25;75.87;101212.56;4980671;28;20037;-68
2023/05/06 08:56:03;;;;;;;4.07;3.10;;;;;;;17.29;74.92;101208.97;4983793;28;20104;-69
2023/05/06 08:58:30;;;;;;;4.20;2.92;;;;;;;17.27;74.01;101207.31;4975401;28;20046;-69
2023/05/06 09:00:56;;;;;;;5.00;3.10;;;;;;;17.40;75.20;101212.13;4985684;28;20042;-68
2023/05/06 09:03:22;;;;;;;3.97;2.60;;;;;;;17.61;74.45;101208.03;4979154;28;20057;-69
2023/05/06 09:05:47;;;;;;;4.20;3.17;;;;;;;17.58;72.88;101184.59;4973844;28;20035;-68
2023/05/06 09:08:14;;;;;;;3.55;2.67;;;;;;;17.82;74.43;101202.13;4980973;28;20045;-68
2023/05/06 09:10:44;;;;;;;5.40;2.63;;;;;;;17.77;71.43;101183.13;5001906;28;20811;-69
2023/05/06 09:13:17;;;;;;;4.53;2.50;;;;;;;17.86;71.23;101184.63;4980531;28;20034;-68
2023/05/06 09:15:46;;;;;;;4.03;2.78;;;;;;;17.99;70.99;101179.88;4981549;28;20723;-69
2023/05/06 09:18:12;;;;;;;3.80;2.10;;;;;;;18.01;68.85;101160.59;4986348;28;20038;-68
2023/05/06 09:20:42;;;;;;;4.68;3.00;;;;;;;18.10;70.20;101176.00;4980747;28;20412;-69
2023/05/06 09:23:10;;;;;;;2.65;2.22;;;;;;;18.15;69.55;101163.63;4980935;28;20092;-69
2023/05/06 09:25:36;;;;;;;3.70;2.38;;;;;;;18.29;67.80;101150.06;4984354;28;20058;-68
2023/05/06 09:28:06;;;;;;;5.22;2.35;;;;;;;18.36;68.76;101162.91;4982697;28;20062;-69
2023/05/06 09:30:32;;;;;;;3.22;2.00;;;;;;;18.62;68.42;101151.50;4978675;28;20030;-68
2023/05/06 09:32:58;;;;;;;4.13;1.92;;;;;;;18.65;65.56;101113.88;4977998;28;20391;-68
2023/05/06 09:35:28;;;;;;;4.22;1.75;;;;;;;18.66;64.67;101108.63;4983400;28;20114;-68
2023/05/06 09:37:53;;;;;;;4.15;1.65;;;;;;;18.70;64.34;101104.94;4988268;28;20034;-68
2023/05/06 09:40:23;;;;;;;3.85;1.52;;;;;;;18.74;65.21;101124.91;4990508;28;20046;-69
2023/05/06 09:42:50;;;;;;;2.75;1.60;;;;;;;18.91;67.00;101147.88;4988429;28;20880;-69
2023/05/06 09:45:16;;;;;;;2.30;1.42;;;;;;;18.94;63.43;101091.00;4990114;28;20091;-67
2023/05/06 09:47:43;;;;;;;2.35;1.45;;;;;;;19.08;62.75;101085.25;4983450;28;20022;-69
2023/05/06 09:50:09;;;;;;;3.00;1.20;;;;;;;19.24;60.67;101054.91;4990440;28;20034;-68
2023/05/06 09:52:35;;;;;;;1.95;1.10;;;;;;;19.35;60.73;101060.59;4982906;28;20045;-68
2023/05/06 09:55:02;;;;;;;2.28;1.60;;;;;;;19.48;61.02;101069.66;4986593;28;20048;-69
2023/05/06 09:57:29;;;;;;;3.40;1.63;;;;;;;19.48;63.40;101110.75;4981858;28;20034;-68
2023/05/06 09:59:56;;;;;;;4.40;1.67;;;;;;;19.58;62.44;101099.00;4992851;28;20412;-68
2023/05/06 10:02:22;;;;;;;2.63;1.30;;;;;;;19.72;60.68;101059.94;4992829;28;20100;-67
2023/05/06 10:04:48;;;;;;;3.03;1.58;;;;;;;19.73;61.26;101071.28;4983796;28;20045;-67
2023/05/06 10:07:15;;;;;;;3.83;1.20;;;;;;;19.69;58.64;101030.34;4984037;28;20026;-67
2023/05/06 10:09:42;;;;;;;4.07;1.45;;;;;;;19.82;57.61;101018.47;4981761;28;20034;-67
2023/05/06 10:12:09;;;;;;;3.63;1.63;;;;;;;19.86;58.65;101033.19;4985350;28;20554;-67
2023/05/06 10:14:35;;;;;;;2.20;1.20;;;;;;;20.00;57.59;101017.69;4989077;28;20042;-67
2023/05/06 10:17:06;;;;;;;2.75;1.25;;;;;;;20.11;57.14;101013.69;4984760;28;20034;-67
2023/05/06 10:19:32;;;;;;;2.78;1.20;;;;;;;20.26;57.34;101024.44;4984606;28;20091;-66
2023/05/06 10:22:05;;;;;;;4.07;1.27;;;;;;;20.31;57.91;101022.44;4990631;28;20557;-66
2023/05/06 10:24:37;;;;;;;5.72;1.35;;;;;;;20.63;58.76;101043.72;4985493;28;20087;-66
2023/05/06 10:27:05;;;;;;;5.40;2.40;;;;;;;20.81;56.69;101013.16;4974393;28;20571;-67
2023/05/06 10:29:32;;;;;;;3.42;1.38;;;;;;;20.62;55.08;100993.91;4991577;28;20569;-66
2023/05/06 10:31:59;;;;;;;2.03;1.00;;;;;;;20.64;53.48;100969.25;4986417;28;20049;-67
2023/05/06 10:34:27;;;;;;;5.32;1.20;;;;;;;20.69;53.93;100987.44;4982816;28;20054;-67
2023/05/06 10:36:56;;;;;;;2.42;1.10;;;;;;;20.76;52.99;100959.13;4983277;28;20034;-68
2023/05/06 10:39:22;;;;;;;3.10;1.00;;;;;;;20.63;53.06;100961.47;4980973;28;20448;-67
2023/05/06 10:41:48;;;;;;;2.00;1.00;;;;;;;20.60;54.13;100975.56;4988309;28;20113;-68
2023/05/06 10:44:13;;;;;;;1.98;1.15;;;;;;;20.75;53.47;100970.56;4991552;28;20073;-67
2023/05/06 10:46:59;;;;;;;3.92;0.88;;;;;;;20.73;53.86;100970.63;4993456;28;20755;-68
2023/05/06 10:49:25;;;;;;;5.65;1.23;;;;;;;20.80;54.27;100979.09;4972672;28;20041;-68
2023/05/06 10:52:12;;;;;;;3.85;1.20;;;;;;;20.94;53.94;100969.63;4989396;28;20038;-68
2023/05/06 10:54:49;;;;;;;2.25;0.98;;;;;;;21.05;53.05;100951.53;4986090;28;20038;-67
2023/05/06 10:57:15;;;;;;;2.85;0.80;;;;;;;21.22;53.26;100958.63;4981671;28;20035;-65
2023/05/06 10:59:45;;;;;;;4.30;1.27;;;;;;;21.35;52.22;100943.94;4983187;28;20092;-67
2023/05/06 11:02:11;;;;;;;2.20;1.02;;;;;;;21.20;51.83;100944.69;4986150;28;20034;-67
2023/05/06 11:04:38;;;;;;;3.67;1.25;;;;;;;21.15;52.10;100939.66;4983320;28;20181;-67
2023/05/06 11:07:23;;;;;;;4.57;1.55;;;;;;;21.21;52.15;100946.41;4983398;28;20072;-66